createdAt,value
2018-08-23T00:02:27.848Z,8.20
2018-08-23T00:04:56.234Z,8.43
2018-08-23T00:07:24.546Z,8.90
2018-08-23T00:09:53.001Z,8.47
2018-08-23T00:12:25.676Z,8.10
2018-08-23T00:14:54.060Z,8.73
2018-08-23T00:17:22.415Z,8.60
2018-08-23T00:19:50.735Z,8.90
2018-08-23T00:22:26.874Z,9.13
2018-08-23T00:24:55.353Z,9.00
2018-08-23T00:27:29.197Z,9.50
2018-08-23T00:29:57.506Z,8.80
2018-08-23T00:32:32.337Z,9.17
2018-08-23T00:35:00.790Z,9.23
2018-08-23T00:37:29.108Z,9.40
2018-08-23T00:40:01.750Z,9.23
2018-08-23T00:42:30.139Z,8.80
2018-08-23T00:45:02.691Z,9.10
2018-08-23T00:47:32.268Z,9.50
2018-08-23T00:50:00.931Z,10.03
2018-08-23T00:52:44.312Z,9.57
2018-08-23T00:55:24.467Z,9.50
2018-08-23T00:57:52.855Z,9.67
2018-08-23T01:00:22.442Z,9.00
2018-08-23T01:02:55.147Z,9.43
2018-08-23T01:05:28.887Z,9.50
2018-08-23T01:07:57.333Z,9.57
2018-08-23T01:10:25.783Z,9.10
2018-08-23T01:12:58.734Z,10.00
2018-08-23T01:15:27.383Z,10.50
2018-08-23T01:18:11.078Z,9.63
2018-08-23T01:20:40.539Z,9.90
2018-08-23T01:23:09.078Z,9.97
2018-08-23T01:25:41.761Z,9.43
2018-08-23T01:28:10.337Z,10.33
2018-08-23T01:30:39.207Z,8.83
2018-08-23T01:33:12.592Z,9.90
2018-08-23T01:35:41.994Z,10.37
2018-08-23T01:38:10.699Z,9.93
2018-08-23T01:40:39.077Z,9.77
2018-08-23T01:43:07.468Z,10.13
2018-08-23T01:45:35.819Z,9.70
2018-08-23T01:48:04.410Z,9.43
2018-08-23T01:50:32.804Z,9.80
2018-08-23T01:53:01.175Z,10.73
2018-08-23T01:55:29.638Z,10.50
2018-08-23T01:57:58.106Z,10.20
2018-08-23T02:00:27.639Z,11.17
2018-08-23T02:02:55.983Z,10.93
2018-08-23T02:05:24.565Z,10.80
2018-08-23T02:07:52.940Z,11.10
2018-08-23T02:10:21.319Z,10.83
2018-08-23T02:12:51.651Z,12.00
2018-08-23T02:15:20.342Z,10.20
2018-08-23T02:17:53.793Z,10.03
2018-08-23T02:20:23.016Z,9.93
2018-08-23T02:22:51.761Z,10.30
2018-08-23T02:25:20.193Z,10.40
2018-08-23T02:28:11.431Z,11.40
2018-08-23T02:30:52.122Z,11.43
2018-08-23T02:33:20.732Z,11.03
2018-08-23T02:36:22.126Z,11.10
2018-08-23T02:38:55.613Z,11.73
2018-08-23T02:41:24.085Z,10.77
2018-08-23T02:43:52.386Z,10.83
2018-08-23T02:46:20.718Z,11.53
2018-08-23T02:48:49.025Z,10.90
2018-08-23T02:51:17.387Z,12.33
2018-08-23T02:53:47.753Z,12.10
2018-08-23T02:56:19.199Z,11.57
2018-08-23T02:59:03.226Z,12.17
2018-08-23T03:01:33.548Z,12.10
2018-08-23T03:04:13.559Z,12.20
2018-08-23T03:06:56.202Z,12.33
2018-08-23T03:09:27.363Z,12.90
2018-08-23T03:11:56.919Z,13.20
2018-08-23T03:14:26.089Z,12.23
2018-08-23T03:17:37.639Z,11.90
2018-08-23T03:20:13.759Z,12.50
2018-08-23T03:22:43.092Z,12.30
2018-08-23T03:25:12.748Z,12.97
2018-08-23T03:27:41.150Z,13.00
2018-08-23T03:30:10.928Z,13.23
2018-08-23T03:32:39.259Z,13.07
2018-08-23T03:35:07.779Z,13.20
2018-08-23T03:37:36.146Z,12.27
2018-08-23T03:40:04.663Z,12.23
2018-08-23T03:42:33.000Z,14.03
2018-08-23T03:45:02.528Z,12.67
2018-08-23T03:47:36.538Z,13.00
2018-08-23T03:50:05.392Z,12.93
2018-08-23T03:52:40.984Z,13.20
2018-08-23T03:55:10.782Z,13.70
2018-08-23T03:57:44.488Z,13.60
2018-08-23T04:00:12.795Z,13.00
2018-08-23T04:02:41.116Z,12.80
2018-08-23T04:05:19.215Z,13.57
2018-08-23T04:07:47.532Z,14.10
2018-08-23T04:10:15.839Z,14.10
2018-08-23T04:12:44.779Z,13.87
2018-08-23T04:15:30.985Z,12.87
2018-08-23T04:18:04.666Z,14.40
2018-08-23T04:20:33.183Z,13.93
2018-08-23T04:23:01.596Z,14.67
2018-08-23T04:25:30.005Z,14.40
2018-08-23T04:27:58.486Z,16.23
2018-08-23T04:30:26.793Z,16.13
2018-08-23T04:32:55.292Z,14.97
2018-08-23T04:35:27.511Z,14.63
2018-08-23T04:37:56.056Z,14.70
2018-08-23T04:40:24.415Z,15.93
2018-08-23T04:42:52.793Z,17.53
2018-08-23T04:45:25.208Z,16.17
2018-08-23T04:48:08.672Z,16.73
2018-08-23T04:50:38.401Z,15.87
2018-08-23T04:53:06.781Z,16.70
2018-08-23T04:55:35.208Z,18.30
2018-08-23T04:58:04.129Z,17.43
2018-08-23T05:00:32.626Z,17.80
2018-08-23T05:03:00.912Z,19.77
2018-08-23T05:05:29.282Z,18.47
2018-08-23T05:07:57.581Z,19.63
2018-08-23T05:10:25.897Z,19.53
2018-08-23T05:12:54.248Z,18.60
2018-08-23T05:15:22.557Z,19.97
2018-08-23T05:17:50.891Z,18.70
2018-08-23T05:20:19.207Z,19.60
2018-08-23T05:22:53.041Z,20.53
2018-08-23T05:25:23.688Z,18.60
2018-08-23T05:28:11.304Z,18.03
2018-08-23T05:30:39.639Z,18.37
2018-08-23T05:33:13.278Z,20.20
2018-08-23T05:35:41.887Z,19.33
2018-08-23T05:38:10.797Z,18.43
2018-08-23T05:40:44.474Z,19.13
2018-08-23T05:43:13.373Z,19.90
2018-08-23T05:45:50.043Z,20.87
2018-08-23T05:48:24.292Z,20.23
2018-08-23T05:50:52.799Z,21.47
2018-08-23T05:53:21.296Z,21.93
2018-08-23T05:55:54.202Z,21.87
2018-08-23T05:58:26.533Z,20.60
2018-08-23T06:00:54.885Z,19.57
2018-08-23T06:03:23.239Z,21.60
2018-08-23T06:05:51.950Z,21.90
2018-08-23T06:08:20.341Z,20.97
2018-08-23T06:10:52.529Z,21.27
2018-08-23T06:13:21.590Z,19.83
2018-08-23T06:15:55.191Z,20.03
2018-08-23T06:18:24.382Z,19.60
2018-08-23T06:20:52.784Z,19.57
2018-08-23T06:23:23.094Z,21.47
2018-08-23T06:25:51.478Z,21.60
2018-08-23T06:28:24.613Z,21.17
2018-08-23T06:30:58.059Z,20.17
2018-08-23T06:33:37.385Z,20.30
2018-08-23T06:36:06.415Z,20.33
2018-08-23T06:38:35.654Z,20.80
2018-08-23T06:41:06.435Z,19.80
2018-08-23T06:43:35.256Z,20.73
2018-08-23T06:46:04.318Z,20.77
2018-08-23T06:48:32.841Z,21.20
2018-08-23T06:51:02.065Z,21.30
2018-08-23T06:53:40.672Z,21.20
2018-08-23T06:56:09.243Z,19.67
2018-08-23T06:58:38.649Z,19.93
2018-08-23T07:01:12.477Z,21.80
2018-08-23T07:03:53.803Z,22.93
2018-08-23T07:06:22.200Z,20.60
2018-08-23T07:08:50.539Z,19.33
2018-08-23T07:11:22.927Z,19.93
2018-08-23T07:13:56.902Z,20.83
2018-08-23T07:16:25.576Z,20.33
2018-08-23T07:18:53.926Z,17.30
2018-08-23T07:21:22.289Z,19.90
2018-08-23T07:23:50.712Z,21.40
2018-08-23T07:26:19.256Z,20.13
2018-08-23T07:28:47.721Z,20.33
2018-08-23T07:31:16.064Z,20.20
2018-08-23T07:33:46.883Z,19.63
2018-08-23T07:36:23.752Z,19.13
2018-08-23T07:38:52.043Z,18.77
2018-08-23T07:41:20.351Z,18.53
2018-08-23T07:43:48.720Z,18.50
2018-08-23T07:46:17.052Z,20.07
2018-08-23T07:48:45.381Z,19.73
2018-08-23T07:51:19.204Z,18.17
2018-08-23T07:53:47.514Z,21.77
2018-08-23T07:56:17.766Z,19.50
2018-08-23T07:58:46.368Z,20.10
2018-08-23T08:01:14.699Z,19.20
2018-08-23T08:03:42.996Z,18.53
2018-08-23T08:06:15.530Z,17.87
2018-08-23T08:08:43.931Z,19.07
2018-08-23T08:11:12.316Z,17.37
2018-08-23T08:13:40.686Z,20.73
2018-08-23T08:16:15.153Z,19.23
2018-08-23T08:18:43.493Z,22.80
2018-08-23T08:21:16.501Z,19.93
2018-08-23T08:23:47.754Z,23.17
2018-08-23T08:26:16.126Z,23.10
2018-08-23T08:28:44.563Z,21.80
2018-08-23T08:31:12.939Z,20.10
2018-08-23T08:33:41.258Z,23.90
2018-08-23T08:36:09.574Z,31.70
2018-08-23T08:38:38.053Z,27.93
2018-08-23T08:41:06.407Z,22.40
2018-08-23T08:43:34.773Z,22.30
2018-08-23T08:46:03.065Z,23.30
2018-08-23T08:48:33.525Z,21.40
2018-08-23T08:51:18.692Z,24.17
2018-08-23T08:53:47.526Z,22.10
2018-08-23T08:56:16.752Z,20.83
2018-08-23T08:58:45.088Z,21.27
2018-08-23T09:01:13.366Z,22.10
2018-08-23T09:03:41.680Z,20.73
2018-08-23T09:06:11.109Z,19.97
2018-08-23T09:08:39.718Z,18.53
2018-08-23T09:11:08.167Z,18.70
2018-08-23T09:13:41.854Z,29.23
2018-08-23T09:16:11.305Z,21.20
2018-08-23T09:18:41.919Z,16.90
2018-08-23T09:21:10.303Z,17.27
2018-08-23T09:23:38.800Z,14.37
2018-08-23T09:26:06.947Z,15.13
2018-08-23T09:28:35.284Z,13.90
2018-08-23T09:31:03.746Z,13.33
2018-08-23T09:33:32.095Z,14.37
2018-08-23T09:36:00.420Z,14.63
2018-08-23T09:38:28.788Z,13.77
2018-08-23T09:40:57.207Z,12.57
2018-08-23T09:43:25.580Z,11.93
2018-08-23T09:45:54.062Z,12.23
2018-08-23T09:48:22.594Z,12.40
2018-08-23T09:50:50.998Z,12.70
2018-08-23T09:53:25.116Z,12.83
2018-08-23T09:55:55.086Z,10.90
2018-08-23T09:58:28.718Z,11.03
2018-08-23T10:01:02.861Z,12.10
2018-08-23T10:03:36.564Z,11.77
2018-08-23T10:06:10.323Z,13.03
2018-08-23T10:08:44.088Z,12.00
2018-08-23T10:11:19.054Z,12.23
2018-08-23T10:13:52.768Z,12.53
2018-08-23T10:16:26.483Z,38.93
2018-08-23T10:18:58.736Z,12.47
2018-08-23T10:21:32.554Z,10.37
2018-08-23T10:24:12.697Z,11.07
2018-08-23T10:26:41.294Z,10.40
2018-08-23T10:29:09.595Z,9.50
2018-08-23T10:31:37.896Z,8.63
2018-08-23T10:34:06.369Z,8.87
2018-08-23T10:36:34.771Z,8.43
2018-08-23T10:39:03.183Z,9.57
2018-08-23T10:41:31.555Z,8.47
2018-08-23T10:43:59.899Z,8.93
2018-08-23T10:46:28.527Z,8.07
2018-08-23T10:48:56.946Z,6.90
2018-08-23T10:51:25.452Z,6.07
2018-08-23T10:53:53.751Z,6.40
2018-08-23T10:56:26.374Z,6.50
2018-08-23T10:58:55.184Z,6.20
2018-08-23T11:01:23.433Z,5.87
2018-08-23T11:03:51.798Z,5.90
2018-08-23T11:06:20.079Z,5.80
2018-08-23T11:09:54.806Z,5.97
2018-08-23T11:12:28.525Z,4.50
2018-08-23T11:14:57.172Z,4.57
2018-08-23T11:17:30.927Z,4.67
2018-08-23T11:20:04.833Z,4.57
2018-08-23T11:22:39.255Z,10.20
2018-08-23T11:25:07.630Z,5.00
2018-08-23T11:27:35.910Z,4.90
2018-08-23T11:30:04.266Z,4.72
2018-08-23T11:32:32.620Z,4.60
2018-08-23T11:35:01.091Z,4.87
2018-08-23T11:37:29.463Z,4.67
2018-08-23T11:39:57.816Z,4.72
2018-08-23T11:42:26.179Z,4.50
2018-08-23T11:44:54.586Z,4.17
2018-08-23T11:47:23.068Z,3.60
2018-08-23T11:49:51.447Z,3.50
2018-08-23T11:52:19.821Z,3.30
2018-08-23T11:54:48.163Z,4.45
2018-08-23T11:57:16.508Z,11.05
2018-08-23T11:59:44.953Z,3.20
2018-08-23T12:02:13.366Z,2.50
2018-08-23T12:04:41.730Z,2.40
2018-08-23T12:07:10.088Z,2.50
2018-08-23T12:09:38.386Z,2.33
2018-08-23T12:12:06.671Z,2.42
2018-08-23T12:14:35.016Z,2.15
2018-08-23T12:17:03.276Z,2.20
2018-08-23T12:19:31.590Z,2.22
2018-08-23T12:21:59.886Z,2.10
2018-08-23T12:24:28.168Z,2.62
2018-08-23T12:26:56.462Z,2.15
2018-08-23T12:29:24.730Z,2.10
2018-08-23T12:31:56.009Z,1.90
2018-08-23T12:34:30.476Z,1.80
2018-08-23T12:37:04.306Z,1.90
2018-08-23T12:39:38.156Z,2.10
2018-08-23T12:42:11.804Z,2.40
2018-08-23T12:44:44.392Z,2.30
2018-08-23T12:47:13.233Z,2.55
2018-08-23T12:49:44.100Z,2.87
2018-08-23T12:52:12.539Z,2.30
2018-08-23T12:54:40.823Z,2.10
2018-08-23T12:57:09.233Z,2.30
2018-08-23T12:59:37.574Z,2.00
2018-08-23T13:02:05.983Z,2.40
2018-08-23T13:04:34.250Z,2.35
2018-08-23T13:07:02.708Z,2.10
2018-08-23T13:09:30.976Z,2.27
2018-08-23T13:11:59.262Z,2.33
2018-08-23T13:14:27.562Z,2.35
2018-08-23T13:16:55.883Z,2.40
2018-08-23T13:19:24.293Z,2.33
2018-08-23T13:21:58.075Z,2.50
2018-08-23T13:24:26.286Z,2.67
2018-08-23T13:26:54.595Z,2.30
2018-08-23T13:29:22.898Z,2.45
2018-08-23T13:31:51.228Z,2.15
2018-08-23T13:34:22.608Z,2.47
2018-08-23T13:36:50.977Z,2.20
2018-08-23T13:39:19.206Z,2.33
2018-08-23T13:41:47.791Z,2.75
2018-08-23T13:44:16.159Z,2.50
2018-08-23T13:46:44.648Z,2.80
2018-08-23T13:49:12.971Z,2.75
2018-08-23T13:51:41.625Z,2.58
2018-08-23T13:54:09.935Z,2.25
2018-08-23T13:56:38.266Z,2.67
2018-08-23T13:59:06.702Z,2.30
2018-08-23T14:01:36.002Z,2.40
2018-08-23T14:04:04.422Z,2.70
2018-08-23T14:06:32.886Z,2.60
2018-08-23T14:09:01.178Z,2.37
2018-08-23T14:11:29.481Z,2.70
2018-08-23T14:13:57.768Z,2.65
2018-08-23T14:16:26.109Z,2.80
2018-08-23T14:18:54.400Z,2.40
2018-08-23T14:21:22.761Z,2.90
2018-08-23T14:23:51.085Z,2.50
2018-08-23T14:26:19.419Z,2.55
2018-08-23T14:28:47.798Z,2.90
2018-08-23T14:31:16.099Z,2.50
2018-08-23T14:33:44.383Z,2.30
2018-08-23T14:36:12.722Z,2.25
2018-08-23T14:38:41.142Z,2.60
2018-08-23T14:41:09.437Z,2.33
2018-08-23T14:43:37.756Z,2.37
2018-08-23T14:46:11.396Z,2.20
2018-08-23T14:48:40.458Z,2.40
2018-08-23T14:51:08.983Z,2.22
2018-08-23T14:53:37.270Z,2.35
2018-08-23T14:56:11.000Z,2.52
2018-08-23T14:58:39.324Z,2.85
2018-08-23T15:01:07.705Z,2.33
2018-08-23T15:03:36.006Z,2.33
2018-08-23T15:06:04.278Z,2.37
2018-08-23T15:08:32.615Z,2.30
2018-08-23T15:11:01.070Z,2.50
2018-08-23T15:13:29.422Z,2.50
2018-08-23T15:15:57.850Z,2.87
2018-08-23T15:18:26.187Z,2.70
2018-08-23T15:20:54.639Z,2.40
2018-08-23T15:23:22.892Z,3.20
2018-08-23T15:25:53.248Z,2.40
2018-08-23T15:28:21.938Z,2.10
2018-08-23T15:30:50.819Z,2.30
2018-08-23T15:33:19.147Z,2.30
2018-08-23T15:35:47.464Z,2.00
2018-08-23T15:38:16.197Z,2.00
2018-08-23T15:40:44.504Z,2.12
2018-08-23T15:43:12.864Z,2.00
2018-08-23T15:45:41.180Z,2.10
2018-08-23T15:48:09.518Z,2.10
2018-08-23T15:50:37.981Z,2.05
2018-08-23T15:53:06.353Z,2.10
2018-08-23T15:55:34.895Z,2.20
2018-08-23T15:58:02.948Z,1.95
2018-08-23T16:00:36.735Z,2.10
2018-08-23T16:03:05.455Z,2.10
2018-08-23T16:05:33.839Z,4.15
2018-08-23T16:08:02.188Z,2.10
2018-08-23T16:10:30.484Z,1.95
2018-08-23T16:12:58.806Z,1.95
2018-08-23T16:15:27.416Z,1.98
2018-08-23T16:18:01.167Z,1.82
2018-08-23T16:20:34.964Z,2.10
2018-08-23T16:23:03.279Z,2.15
2018-08-23T16:25:35.807Z,2.02
2018-08-23T16:28:04.110Z,2.37
2018-08-23T16:30:32.418Z,2.20
2018-08-23T16:33:00.702Z,2.33
2018-08-23T16:35:29.105Z,2.20
2018-08-23T16:37:57.437Z,2.30
2018-08-23T16:40:30.602Z,2.30
2018-08-23T16:42:59.976Z,2.00
2018-08-23T16:45:28.339Z,2.50
2018-08-23T16:47:56.652Z,2.52
2018-08-23T16:50:24.959Z,2.30
2018-08-23T16:52:53.845Z,2.60
2018-08-23T16:55:22.088Z,2.35
2018-08-23T16:57:50.384Z,2.40
2018-08-23T17:00:18.652Z,2.30
2018-08-23T17:02:46.978Z,2.45
2018-08-23T17:05:15.472Z,2.62
2018-08-23T17:07:43.787Z,2.70
2018-08-23T17:10:12.098Z,2.60
2018-08-23T17:12:40.376Z,2.62
2018-08-23T17:15:12.971Z,3.37
2018-08-23T17:17:44.779Z,4.72
2018-08-23T17:20:13.059Z,2.95
2018-08-23T17:22:41.369Z,3.22
2018-08-23T17:25:09.681Z,3.10
2018-08-23T17:27:37.937Z,2.83
2018-08-23T17:30:06.284Z,2.80
2018-08-23T17:32:34.559Z,4.08
2018-08-23T17:35:02.847Z,3.20
2018-08-23T17:37:31.112Z,3.20
2018-08-23T17:39:59.404Z,3.10
2018-08-23T17:42:33.038Z,3.65
2018-08-23T17:45:01.363Z,3.25
2018-08-23T17:47:29.673Z,2.42
2018-08-23T17:49:58.071Z,2.95
2018-08-23T17:52:26.359Z,3.02
2018-08-23T17:54:54.672Z,3.35
2018-08-23T17:57:22.963Z,2.37
2018-08-23T17:59:51.497Z,2.90
2018-08-23T18:02:19.840Z,4.45
2018-08-23T18:04:48.152Z,3.62
2018-08-23T18:07:16.432Z,3.33
2018-08-23T18:09:44.722Z,2.60
2018-08-23T18:12:13.058Z,2.87
2018-08-23T18:14:41.359Z,2.70
2018-08-23T18:17:09.646Z,2.65
2018-08-23T18:19:39.062Z,2.90
2018-08-23T18:22:07.424Z,2.70
2018-08-23T18:24:35.742Z,3.50
2018-08-23T18:27:04.114Z,3.25
2018-08-23T18:29:32.512Z,3.40
2018-08-23T18:32:00.953Z,3.25
2018-08-23T18:34:29.214Z,3.50
2018-08-23T18:36:57.481Z,3.30
2018-08-23T18:39:25.827Z,3.25
2018-08-23T18:41:54.087Z,3.20
2018-08-23T18:44:22.475Z,3.27
2018-08-23T18:46:50.743Z,3.60
2018-08-23T18:49:19.036Z,3.60
2018-08-23T18:51:47.344Z,3.07
2018-08-23T18:54:15.676Z,3.40
2018-08-23T18:56:44.013Z,3.20
2018-08-23T18:59:12.355Z,4.20
2018-08-23T19:01:40.627Z,3.60
2018-08-23T19:04:08.930Z,3.70
2018-08-23T19:06:38.190Z,3.40
2018-08-23T19:09:12.956Z,3.33
2018-08-23T19:11:41.648Z,4.03
2018-08-23T19:14:09.939Z,4.03
2018-08-23T19:16:43.674Z,3.60
2018-08-23T19:19:12.032Z,3.50
2018-08-23T19:21:40.375Z,3.67
2018-08-23T19:24:08.682Z,3.37
2018-08-23T19:26:37.008Z,4.40
2018-08-23T19:29:05.333Z,3.17
2018-08-23T19:31:33.617Z,3.27
2018-08-23T19:34:01.928Z,3.30
2018-08-23T19:36:30.249Z,3.47
2018-08-23T19:38:58.539Z,3.40
2018-08-23T19:41:26.804Z,3.63
2018-08-23T19:43:55.094Z,4.23
2018-08-23T19:46:29.119Z,3.97
2018-08-23T19:49:02.755Z,3.97
2018-08-23T19:51:31.067Z,4.00
2018-08-23T19:53:59.408Z,3.70
2018-08-23T19:56:27.704Z,4.00
2018-08-23T19:58:56.010Z,3.93
2018-08-23T20:01:24.331Z,3.80
2018-08-23T20:03:52.750Z,3.73
2018-08-23T20:06:21.029Z,3.93
2018-08-23T20:08:49.298Z,4.50
2018-08-23T20:11:17.754Z,3.80
2018-08-23T20:13:46.055Z,3.23
2018-08-23T20:16:14.598Z,3.63
2018-08-23T20:18:42.910Z,3.43
2018-08-23T20:21:11.206Z,3.00
2018-08-23T20:23:39.530Z,3.43
2018-08-23T20:26:08.251Z,3.57
2018-08-23T20:28:37.685Z,3.00
2018-08-23T20:31:06.670Z,3.03
2018-08-23T20:33:34.973Z,3.60
2018-08-23T20:36:03.290Z,3.97
2018-08-23T20:38:31.588Z,3.33
2018-08-23T20:40:59.928Z,3.07
2018-08-23T20:43:28.264Z,3.20
2018-08-23T20:45:56.619Z,2.90
2018-08-23T20:48:25.221Z,3.13
2018-08-23T20:50:54.048Z,3.00
2018-08-23T20:53:22.946Z,3.53
2018-08-23T20:55:51.334Z,3.57
2018-08-23T20:58:19.677Z,2.97
2018-08-23T21:00:47.938Z,3.67
2018-08-23T21:03:16.275Z,6.17
2018-08-23T21:05:44.598Z,3.00
2018-08-23T21:08:12.883Z,3.50
2018-08-23T21:10:41.284Z,3.00
2018-08-23T21:13:09.643Z,3.03
2018-08-23T21:15:38.887Z,3.10
2018-08-23T21:18:09.379Z,2.90
2018-08-23T21:20:38.032Z,3.10
2018-08-23T21:23:06.502Z,3.00
2018-08-23T21:25:34.795Z,5.00
2018-08-23T21:28:03.093Z,4.50
2018-08-23T21:30:31.411Z,3.27
2018-08-23T21:32:59.704Z,3.17
2018-08-23T21:35:28.024Z,2.83
2018-08-23T21:37:56.421Z,3.17
2018-08-23T21:40:24.773Z,3.00
2018-08-23T21:42:53.273Z,2.83
2018-08-23T21:45:21.566Z,3.07
2018-08-23T21:47:50.012Z,3.03
2018-08-23T21:50:18.353Z,3.30
2018-08-23T21:52:46.697Z,3.83
2018-08-23T21:55:14.999Z,3.37
2018-08-23T21:57:43.945Z,3.00
2018-08-23T22:00:12.348Z,3.33
2018-08-23T22:02:40.649Z,3.80
2018-08-23T22:05:09.090Z,3.30
2018-08-23T22:07:37.371Z,3.30
2018-08-23T22:10:05.720Z,3.07
2018-08-23T22:12:34.068Z,3.20
2018-08-23T22:15:02.360Z,3.27
2018-08-23T22:17:30.662Z,3.43
2018-08-23T22:19:59.021Z,3.90
2018-08-23T22:22:27.340Z,3.60
2018-08-23T22:24:55.683Z,3.40
2018-08-23T22:27:24.638Z,3.20
2018-08-23T22:29:52.993Z,3.27
2018-08-23T22:32:21.283Z,3.40
2018-08-23T22:34:49.576Z,3.50
2018-08-23T22:37:17.864Z,3.37
2018-08-23T22:39:46.126Z,3.07
2018-08-23T22:42:14.432Z,3.43
2018-08-23T22:44:42.713Z,3.30
2018-08-23T22:47:11.019Z,3.60
2018-08-23T22:49:39.354Z,3.20
2018-08-23T22:52:07.686Z,3.33
2018-08-23T22:54:35.978Z,3.50
2018-08-23T22:57:04.702Z,3.27
2018-08-23T22:59:33.051Z,3.63
2018-08-23T23:02:01.375Z,3.20
2018-08-23T23:04:29.704Z,3.63
2018-08-23T23:06:58.887Z,3.20
2018-08-23T23:09:34.467Z,3.13
2018-08-23T23:12:02.877Z,3.30
2018-08-23T23:14:31.186Z,3.40
2018-08-23T23:16:59.528Z,4.13
2018-08-23T23:19:27.885Z,3.50
2018-08-23T23:21:56.208Z,3.70
2018-08-23T23:24:29.908Z,4.20
2018-08-23T23:26:58.226Z,3.73
2018-08-23T23:29:26.529Z,3.97
2018-08-23T23:31:54.831Z,4.20
2018-08-23T23:34:23.123Z,3.97
2018-08-23T23:36:51.498Z,3.70
2018-08-23T23:39:19.964Z,3.73
2018-08-23T23:41:48.562Z,4.13
2018-08-23T23:44:17.166Z,4.23
2018-08-23T23:46:45.524Z,3.97
2018-08-23T23:49:13.971Z,3.60
2018-08-23T23:51:42.355Z,4.00
2018-08-23T23:54:10.734Z,4.33
2018-08-23T23:56:39.093Z,4.50
2018-08-23T23:59:07.661Z,4.10
